createdAt,value
2018-09-14T00:00:26.046Z,12.87
2018-09-14T00:01:26.062Z,12.90
2018-09-14T00:03:18.983Z,12.83
2018-09-14T00:04:18.983Z,12.83
2018-09-14T00:06:11.882Z,12.77
2018-09-14T00:07:11.901Z,12.65
2018-09-14T00:09:04.815Z,12.56
2018-09-14T00:10:04.826Z,12.62
2018-09-14T00:11:57.735Z,12.59
2018-09-14T00:12:57.750Z,12.65
2018-09-14T00:14:50.644Z,12.64
2018-09-14T00:15:50.666Z,12.62
2018-09-14T00:17:43.576Z,12.64
2018-09-14T00:18:43.584Z,12.64
2018-09-14T00:20:36.491Z,12.60
2018-09-14T00:21:36.514Z,12.59
2018-09-14T00:23:29.436Z,12.64
2018-09-14T00:24:29.428Z,12.49
2018-09-14T00:26:22.336Z,12.59
2018-09-14T00:27:22.371Z,12.49
2018-09-14T00:29:15.266Z,12.50
2018-09-14T00:30:15.273Z,12.42
2018-09-14T00:32:08.182Z,12.47
2018-09-14T00:33:08.194Z,12.50
2018-09-14T00:35:01.102Z,12.49
2018-09-14T00:36:01.115Z,12.59
2018-09-14T00:37:54.028Z,12.47
2018-09-14T00:38:54.057Z,12.46
2018-09-14T00:40:46.942Z,12.50
2018-09-14T00:41:46.957Z,12.45
2018-09-14T00:43:39.872Z,12.47
2018-09-14T00:44:39.880Z,12.49
2018-09-14T00:46:32.786Z,12.45
2018-09-14T00:47:32.804Z,12.47
2018-09-14T00:49:25.724Z,12.39
2018-09-14T00:50:25.731Z,12.27
2018-09-14T00:52:18.632Z,12.28
2018-09-14T00:53:18.650Z,12.39
2018-09-14T00:55:11.563Z,12.32
2018-09-14T00:56:11.572Z,12.29
2018-09-14T00:58:04.479Z,12.34
2018-09-14T00:59:04.487Z,12.19
2018-09-14T01:00:57.392Z,12.28
2018-09-14T01:01:57.408Z,12.16
2018-09-14T01:03:50.319Z,12.20
2018-09-14T01:04:50.329Z,12.12
2018-09-14T01:06:43.228Z,12.14
2018-09-14T01:07:43.247Z,12.04
2018-09-14T01:09:36.162Z,12.04
2018-09-14T01:10:36.167Z,12.07
2018-09-14T01:12:29.070Z,11.98
2018-09-14T01:13:29.088Z,11.91
2018-09-14T01:15:21.998Z,11.98
2018-09-14T01:16:22.003Z,11.98
2018-09-14T01:18:14.922Z,11.95
2018-09-14T01:19:14.921Z,11.96
2018-09-14T01:21:07.825Z,12.01
2018-09-14T01:22:07.846Z,11.88
2018-09-14T01:24:00.751Z,11.86
2018-09-14T01:25:00.759Z,11.88
2018-09-14T01:26:53.672Z,11.86
2018-09-14T01:27:53.692Z,11.85
2018-09-14T01:29:46.600Z,11.73
2018-09-14T01:30:46.609Z,11.73
2018-09-14T01:32:39.510Z,11.72
2018-09-14T01:33:39.527Z,11.72
2018-09-14T01:35:32.437Z,11.79
2018-09-14T01:36:32.446Z,11.75
2018-09-14T01:38:25.355Z,11.78
2018-09-14T01:39:25.364Z,11.73
2018-09-14T01:41:18.264Z,11.86
2018-09-14T01:42:18.279Z,11.86
2018-09-14T01:44:11.199Z,11.86
2018-09-14T01:45:11.204Z,11.88
2018-09-14T01:47:04.105Z,11.82
2018-09-14T01:48:04.123Z,11.90
2018-09-14T01:49:57.030Z,11.86
2018-09-14T01:50:57.042Z,11.90
2018-09-14T01:52:49.943Z,11.98
2018-09-14T01:53:49.962Z,11.96
2018-09-14T01:55:42.869Z,11.98
2018-09-14T01:56:42.880Z,11.95
2018-09-14T01:58:35.786Z,11.95
2018-09-14T01:59:35.802Z,12.01
2018-09-14T02:01:28.699Z,12.10
2018-09-14T02:02:28.714Z,12.13
2018-09-14T02:04:21.634Z,11.96
2018-09-14T02:05:21.642Z,11.94
2018-09-14T02:07:14.545Z,11.83
2018-09-14T02:08:14.553Z,11.85
2018-09-14T02:10:07.471Z,11.85
2018-09-14T02:11:07.477Z,11.90
2018-09-14T02:13:00.384Z,11.85
2018-09-14T02:14:00.405Z,11.82
2018-09-14T02:15:53.314Z,11.88
2018-09-14T02:16:53.321Z,11.88
2018-09-14T02:18:46.233Z,11.78
2018-09-14T02:19:46.239Z,11.85
2018-09-14T02:21:39.150Z,11.88
2018-09-14T02:22:39.161Z,11.88
2018-09-14T02:24:32.073Z,11.85
2018-09-14T02:25:32.119Z,11.90
2018-09-14T02:27:24.981Z,11.85
2018-09-14T02:28:24.997Z,11.94
2018-09-14T02:30:17.917Z,11.86
2018-09-14T02:31:17.920Z,11.91
2018-09-14T02:33:10.824Z,11.95
2018-09-14T02:34:10.840Z,11.96
2018-09-14T02:36:03.750Z,11.96
2018-09-14T02:37:03.761Z,11.86
2018-09-14T02:38:56.671Z,11.80
2018-09-14T02:39:56.683Z,11.75
2018-09-14T02:41:49.587Z,11.72
2018-09-14T02:42:49.600Z,11.70
2018-09-14T02:44:42.509Z,11.85
2018-09-14T02:45:42.521Z,11.88
2018-09-14T02:47:35.436Z,11.95
2018-09-14T02:48:35.439Z,12.02
2018-09-14T02:50:28.387Z,12.01
2018-09-14T02:51:28.359Z,12.14
2018-09-14T02:53:21.260Z,12.16
2018-09-14T02:54:21.278Z,12.13
2018-09-14T02:56:14.192Z,12.16
2018-09-14T02:57:14.201Z,12.21
2018-09-14T02:59:07.113Z,12.20
2018-09-14T03:00:07.153Z,12.23
2018-09-14T03:02:00.043Z,12.27
2018-09-14T03:03:00.038Z,12.20
2018-09-14T03:04:52.945Z,12.20
2018-09-14T03:05:52.959Z,12.16
2018-09-14T03:07:45.907Z,12.07
2018-09-14T03:08:45.881Z,12.13
2018-09-14T03:10:38.827Z,12.19
2018-09-14T03:11:38.820Z,12.12
2018-09-14T03:13:31.783Z,12.19
2018-09-14T03:14:31.779Z,12.21
2018-09-14T03:16:24.655Z,12.20
2018-09-14T03:17:24.666Z,12.23
2018-09-14T03:19:17.576Z,12.29
2018-09-14T03:20:17.597Z,12.31
2018-09-14T03:22:10.502Z,12.37
2018-09-14T03:23:10.537Z,12.32
2018-09-14T03:25:03.481Z,12.32
2018-09-14T03:26:03.567Z,12.28
2018-09-14T03:27:56.482Z,12.39
2018-09-14T03:28:56.417Z,12.38
2018-09-14T03:30:49.321Z,12.16
2018-09-14T03:31:49.373Z,12.21
2018-09-14T03:33:42.225Z,12.19
2018-09-14T03:34:42.300Z,12.19
2018-09-14T03:36:35.161Z,12.29
2018-09-14T03:37:35.168Z,12.19
2018-09-14T03:39:28.071Z,12.14
2018-09-14T03:40:28.088Z,12.13
2018-09-14T03:42:20.995Z,12.24
2018-09-14T03:43:21.006Z,12.13
2018-09-14T03:45:13.945Z,12.14
2018-09-14T03:46:13.963Z,12.10
2018-09-14T03:48:07.070Z,12.05
2018-09-14T03:49:07.087Z,12.12
2018-09-14T03:50:59.989Z,12.14
2018-09-14T03:52:00.012Z,12.12
2018-09-14T03:53:52.905Z,12.12
2018-09-14T03:54:52.920Z,11.86
2018-09-14T03:56:45.892Z,11.73
2018-09-14T03:57:45.840Z,11.64
2018-09-14T03:59:38.751Z,11.62
2018-09-14T04:00:38.766Z,11.70
2018-09-14T04:02:31.672Z,11.70
2018-09-14T04:03:31.683Z,11.70
2018-09-14T04:05:24.589Z,11.78
2018-09-14T04:06:24.605Z,11.75
2018-09-14T04:08:17.520Z,11.73
2018-09-14T04:09:17.533Z,11.69
2018-09-14T04:11:10.461Z,11.57
2018-09-14T04:12:10.450Z,11.42
2018-09-14T04:14:03.357Z,11.24
2018-09-14T04:15:03.370Z,11.24
2018-09-14T04:16:56.318Z,11.11
2018-09-14T04:17:56.295Z,11.15
2018-09-14T04:19:49.191Z,11.06
2018-09-14T04:20:49.209Z,11.07
2018-09-14T04:22:42.322Z,11.06
2018-09-14T04:23:42.451Z,11.07
2018-09-14T04:25:35.235Z,11.04
2018-09-14T04:26:35.251Z,11.09
2018-09-14T04:28:28.171Z,11.18
2018-09-14T04:29:28.165Z,11.14
2018-09-14T04:31:21.093Z,11.19
2018-09-14T04:32:21.116Z,11.18
2018-09-14T04:34:14.027Z,11.27
2018-09-14T04:35:14.034Z,11.28
2018-09-14T04:37:06.941Z,11.32
2018-09-14T04:38:07.011Z,11.36
2018-09-14T04:39:59.852Z,11.42
2018-09-14T04:40:59.869Z,11.44
2018-09-14T04:42:52.800Z,11.39
2018-09-14T04:43:52.812Z,11.43
2018-09-14T04:45:45.716Z,11.49
2018-09-14T04:46:45.735Z,11.49
2018-09-14T04:48:38.641Z,11.54
2018-09-14T04:49:38.653Z,11.49
2018-09-14T04:51:31.770Z,11.55
2018-09-14T04:52:31.583Z,11.61
2018-09-14T04:54:24.487Z,11.42
2018-09-14T04:55:24.491Z,11.42
2018-09-14T04:57:17.484Z,11.55
2018-09-14T04:58:17.417Z,11.40
2018-09-14T05:00:10.317Z,11.52
2018-09-14T05:01:10.337Z,11.54
2018-09-14T05:03:03.279Z,11.55
2018-09-14T05:04:03.255Z,11.58
2018-09-14T05:05:56.196Z,11.64
2018-09-14T05:06:56.183Z,11.62
2018-09-14T05:08:49.100Z,11.76
2018-09-14T05:09:49.103Z,11.72
2018-09-14T05:11:42.008Z,11.86
2018-09-14T05:12:42.022Z,11.85
2018-09-14T05:14:34.938Z,11.86
2018-09-14T05:15:34.944Z,11.73
2018-09-14T05:17:27.853Z,11.88
2018-09-14T05:18:27.861Z,11.94
2018-09-14T05:20:20.771Z,11.85
2018-09-14T05:21:20.778Z,11.94
2018-09-14T05:23:13.695Z,11.95
2018-09-14T05:24:13.748Z,12.01
2018-09-14T05:26:06.603Z,11.98
2018-09-14T05:27:06.620Z,11.91
2018-09-14T05:28:59.528Z,11.83
2018-09-14T05:29:59.538Z,11.76
2018-09-14T05:31:52.439Z,11.61
2018-09-14T05:32:52.455Z,11.58
2018-09-14T05:34:45.366Z,11.52
2018-09-14T05:35:45.376Z,11.52
2018-09-14T05:37:38.276Z,11.67
2018-09-14T05:38:38.294Z,11.65
2018-09-14T05:40:31.199Z,11.78
2018-09-14T05:41:31.210Z,11.73
2018-09-14T05:43:24.110Z,11.91
2018-09-14T05:44:24.128Z,11.95
2018-09-14T05:46:17.040Z,12.04
2018-09-14T05:47:17.050Z,12.02
2018-09-14T05:49:09.962Z,12.14
2018-09-14T05:50:09.970Z,12.05
2018-09-14T05:52:02.874Z,11.88
2018-09-14T05:53:02.895Z,11.86
2018-09-14T05:54:55.801Z,11.88
2018-09-14T05:55:55.812Z,11.94
2018-09-14T05:57:48.717Z,11.99
2018-09-14T05:58:48.729Z,11.85
2018-09-14T06:00:41.640Z,11.98
2018-09-14T06:01:41.653Z,11.99
2018-09-14T06:03:34.558Z,12.16
2018-09-14T06:04:34.570Z,12.23
2018-09-14T06:06:27.539Z,12.28
2018-09-14T06:07:27.493Z,12.34
2018-09-14T06:09:20.415Z,12.32
2018-09-14T06:10:20.415Z,12.32
2018-09-14T06:12:13.314Z,12.31
2018-09-14T06:13:13.333Z,12.32
2018-09-14T06:15:06.249Z,12.29
2018-09-14T06:16:06.257Z,12.37
2018-09-14T06:17:59.174Z,12.39
2018-09-14T06:18:59.214Z,12.47
2018-09-14T06:20:52.093Z,12.52
2018-09-14T06:21:52.101Z,12.52
2018-09-14T06:23:45.013Z,12.49
2018-09-14T06:24:45.026Z,12.45
2018-09-14T06:26:38.014Z,12.53
2018-09-14T06:27:37.990Z,12.70
2018-09-14T06:29:30.891Z,12.71
2018-09-14T06:30:30.943Z,12.74
2018-09-14T06:32:23.824Z,12.59
2018-09-14T06:33:23.832Z,12.62
2018-09-14T06:35:16.748Z,12.60
2018-09-14T06:36:16.774Z,12.59
2018-09-14T06:38:09.712Z,12.74
2018-09-14T06:39:09.711Z,12.79
2018-09-14T06:41:02.585Z,12.92
2018-09-14T06:42:02.591Z,12.82
2018-09-14T06:43:55.495Z,12.93
2018-09-14T06:44:55.569Z,12.92
2018-09-14T06:46:48.428Z,12.90
2018-09-14T06:47:48.455Z,13.04
2018-09-14T06:49:41.343Z,13.00
2018-09-14T06:50:41.362Z,13.00
2018-09-14T06:52:34.275Z,13.10
2018-09-14T06:53:34.290Z,13.04
2018-09-14T06:55:27.204Z,13.08
2018-09-14T06:56:27.226Z,13.14
2018-09-14T06:58:20.135Z,13.01
2018-09-14T06:59:20.148Z,13.19
2018-09-14T07:01:13.061Z,13.22
2018-09-14T07:02:13.069Z,13.17
2018-09-14T07:04:05.976Z,13.01
2018-09-14T07:05:05.995Z,13.00
2018-09-14T07:06:58.905Z,13.01
2018-09-14T07:07:58.913Z,13.17
2018-09-14T07:09:51.817Z,13.17
2018-09-14T07:10:51.836Z,13.14
2018-09-14T07:12:44.747Z,13.26
2018-09-14T07:13:44.756Z,13.36
2018-09-14T07:15:37.668Z,13.32
2018-09-14T07:16:37.686Z,13.28
2018-09-14T07:18:30.595Z,13.30
2018-09-14T07:19:30.608Z,13.52
2018-09-14T07:21:23.511Z,13.66
2018-09-14T07:22:23.549Z,13.67
2018-09-14T07:24:16.543Z,13.70
2018-09-14T07:25:16.460Z,13.51
2018-09-14T07:27:09.407Z,13.17
2018-09-14T07:28:09.394Z,13.15
2018-09-14T07:30:02.323Z,13.19
2018-09-14T07:31:02.306Z,13.30
2018-09-14T07:32:55.225Z,13.42
2018-09-14T07:33:55.228Z,13.46
2018-09-14T07:35:48.136Z,13.55
2018-09-14T07:36:48.158Z,13.28
2018-09-14T07:38:41.078Z,13.28
2018-09-14T07:39:41.081Z,13.38
2018-09-14T07:41:33.991Z,13.45
2018-09-14T07:42:34.020Z,13.49
2018-09-14T07:44:26.922Z,13.51
2018-09-14T07:45:26.935Z,13.63
2018-09-14T07:47:19.849Z,13.62
2018-09-14T07:48:19.880Z,13.60
2018-09-14T07:50:12.765Z,13.78
2018-09-14T07:51:12.788Z,13.82
2018-09-14T07:53:05.698Z,13.95
2018-09-14T07:54:05.712Z,14.00
2018-09-14T07:55:58.620Z,14.27
2018-09-14T07:56:58.642Z,14.35
2018-09-14T07:58:51.553Z,14.60
2018-09-14T07:59:51.566Z,14.64
2018-09-14T08:01:44.472Z,14.77
2018-09-14T08:02:44.492Z,14.81
2018-09-14T08:04:37.406Z,14.92
2018-09-14T08:05:37.443Z,14.95
2018-09-14T08:07:30.330Z,15.09
2018-09-14T08:08:30.342Z,15.19
2018-09-14T08:10:23.258Z,15.43
2018-09-14T08:11:23.270Z,15.36
2018-09-14T08:13:16.416Z,15.62
2018-09-14T08:14:17.234Z,15.68
2018-09-14T08:16:09.305Z,15.80
2018-09-14T08:17:09.335Z,15.74
2018-09-14T08:19:02.242Z,15.90
2018-09-14T08:20:02.320Z,15.74
2018-09-14T08:21:55.234Z,15.72
2018-09-14T08:22:55.202Z,15.59
2018-09-14T08:24:48.115Z,15.43
2018-09-14T08:25:48.123Z,15.44
2018-09-14T08:27:41.032Z,15.47
2018-09-14T08:28:41.055Z,15.38
2018-09-14T08:30:33.969Z,15.21
2018-09-14T08:31:33.982Z,15.17
2018-09-14T08:33:26.891Z,14.98
2018-09-14T08:34:26.912Z,14.94
2018-09-14T08:36:19.859Z,15.16
2018-09-14T08:37:19.845Z,15.23
2018-09-14T08:39:12.772Z,15.35
2018-09-14T08:40:12.773Z,15.43
2018-09-14T08:42:05.677Z,15.62
2018-09-14T08:43:05.697Z,15.68
2018-09-14T08:44:58.610Z,15.83
2018-09-14T08:45:58.628Z,15.80
2018-09-14T08:47:51.570Z,15.87
2018-09-14T08:48:51.559Z,15.94
2018-09-14T08:50:44.473Z,16.12
2018-09-14T08:51:44.485Z,16.21
2018-09-14T08:53:37.411Z,16.24
2018-09-14T08:54:37.417Z,16.31
2018-09-14T08:56:30.350Z,16.45
2018-09-14T08:57:30.356Z,16.50
2018-09-14T08:59:23.266Z,16.52
2018-09-14T09:00:23.279Z,16.60
2018-09-14T09:02:16.193Z,16.83
2018-09-14T09:03:16.210Z,16.91
2018-09-14T09:05:09.137Z,16.98
2018-09-14T09:06:09.148Z,16.91
2018-09-14T09:08:02.061Z,17.15
2018-09-14T09:09:02.083Z,17.23
2018-09-14T09:10:55.002Z,17.25
2018-09-14T09:11:55.012Z,17.23
2018-09-14T09:13:47.925Z,17.04
2018-09-14T09:14:47.947Z,17.00
2018-09-14T09:16:40.871Z,17.14
2018-09-14T09:17:40.895Z,17.16
2018-09-14T09:19:33.792Z,17.15
2018-09-14T09:20:33.814Z,17.23
2018-09-14T09:22:26.734Z,17.44
2018-09-14T09:23:26.808Z,17.48
2018-09-14T09:25:19.664Z,17.74
2018-09-14T09:26:19.757Z,17.75
2018-09-14T09:28:12.590Z,17.93
2018-09-14T09:29:12.616Z,17.97
2018-09-14T09:31:05.530Z,18.00
2018-09-14T09:32:05.551Z,18.14
2018-09-14T09:33:58.474Z,18.29
2018-09-14T09:34:58.503Z,18.26
2018-09-14T09:36:51.428Z,18.52
2018-09-14T09:37:51.444Z,18.58
2018-09-14T09:39:44.360Z,18.70
2018-09-14T09:40:44.380Z,18.51
2018-09-14T09:42:37.308Z,18.33
2018-09-14T09:43:37.527Z,18.42
2018-09-14T09:45:30.237Z,18.55
2018-09-14T09:46:30.260Z,18.70
2018-09-14T09:48:23.183Z,18.66
2018-09-14T09:49:23.199Z,18.82
2018-09-14T09:51:16.149Z,18.84
2018-09-14T09:52:16.136Z,18.95
2018-09-14T09:54:09.065Z,18.99
2018-09-14T09:55:09.127Z,19.07
2018-09-14T09:57:02.019Z,18.92
2018-09-14T09:58:02.031Z,18.98
2018-09-14T09:59:54.975Z,18.80
2018-09-14T10:00:54.980Z,18.94
2018-09-14T10:02:47.889Z,19.13
2018-09-14T10:03:48.017Z,19.16
2018-09-14T10:05:41.328Z,19.28
2018-09-14T10:06:41.355Z,19.19
2018-09-14T10:08:34.276Z,19.31
2018-09-14T10:09:34.291Z,19.46
2018-09-14T10:11:27.214Z,19.44
2018-09-14T10:12:27.228Z,19.39
2018-09-14T10:14:20.170Z,19.32
2018-09-14T10:15:20.199Z,19.47
2018-09-14T10:17:13.154Z,19.47
2018-09-14T10:18:13.167Z,19.47
2018-09-14T10:20:06.079Z,19.43
2018-09-14T10:21:06.172Z,19.48
2018-09-14T10:22:59.027Z,19.50
2018-09-14T10:23:59.038Z,19.37
2018-09-14T10:25:51.942Z,19.31
2018-09-14T10:26:52.011Z,19.25
2018-09-14T10:28:44.946Z,18.98
2018-09-14T10:29:44.908Z,18.87
2018-09-14T10:31:37.816Z,18.70
2018-09-14T10:32:37.839Z,18.55
2018-09-14T10:34:30.761Z,18.67
2018-09-14T10:35:30.772Z,18.84
2018-09-14T10:37:23.686Z,18.81
2018-09-14T10:38:23.728Z,18.92
2018-09-14T10:40:16.645Z,19.08
2018-09-14T10:41:16.641Z,19.10
2018-09-14T10:43:09.564Z,19.21
2018-09-14T10:44:09.577Z,19.18
2018-09-14T10:46:02.491Z,19.13
2018-09-14T10:47:02.521Z,19.25
2018-09-14T10:48:55.524Z,19.26
2018-09-14T10:49:55.478Z,19.25
2018-09-14T10:51:48.355Z,19.26
2018-09-14T10:52:48.378Z,19.33
2018-09-14T10:54:41.332Z,19.23
2018-09-14T10:55:41.325Z,19.32
2018-09-14T10:57:34.236Z,19.39
2018-09-14T10:58:34.254Z,19.40
2018-09-14T11:00:28.167Z,19.48
2018-09-14T11:01:28.185Z,19.46
2018-09-14T11:03:21.116Z,19.50
2018-09-14T11:04:21.177Z,19.50
2018-09-14T11:06:14.029Z,19.56
2018-09-14T11:07:14.049Z,19.55
2018-09-14T11:09:06.973Z,19.55
2018-09-14T11:10:07.044Z,19.55
2018-09-14T11:11:59.897Z,19.68
2018-09-14T11:12:59.936Z,19.71
2018-09-14T11:14:52.840Z,19.92
2018-09-14T11:15:52.857Z,20.05
2018-09-14T11:17:45.767Z,20.03
2018-09-14T11:18:45.920Z,20.18
2018-09-14T11:20:38.773Z,20.18
2018-09-14T11:21:38.725Z,20.28
2018-09-14T11:23:31.635Z,20.17
2018-09-14T11:24:31.703Z,20.10
2018-09-14T11:26:24.585Z,20.17
2018-09-14T11:27:24.603Z,20.14
2018-09-14T11:29:17.522Z,20.11
2018-09-14T11:30:17.535Z,20.23
2018-09-14T11:32:10.458Z,20.08
2018-09-14T11:33:10.468Z,20.18
2018-09-14T11:35:03.389Z,20.11
2018-09-14T11:36:03.402Z,20.16
2018-09-14T11:37:56.418Z,20.01
2018-09-14T11:38:56.336Z,20.17
2018-09-14T11:40:49.258Z,20.29
2018-09-14T11:41:49.273Z,20.35
2018-09-14T11:43:42.186Z,20.38
2018-09-14T11:44:42.209Z,20.41
2018-09-14T11:46:35.137Z,20.59
2018-09-14T11:47:35.144Z,20.42
2018-09-14T11:49:28.053Z,20.42
2018-09-14T11:50:28.075Z,20.36
2018-09-14T11:52:21.002Z,20.29
2018-09-14T11:53:21.014Z,20.39
2018-09-14T11:55:13.955Z,20.43
2018-09-14T11:56:13.947Z,20.52
2018-09-14T11:58:06.928Z,20.54
2018-09-14T11:59:06.924Z,20.47
2018-09-14T12:00:59.804Z,20.48
2018-09-14T12:01:59.821Z,20.38
2018-09-14T12:03:52.735Z,20.41
2018-09-14T12:04:52.753Z,20.52
2018-09-14T12:06:45.676Z,20.73
2018-09-14T12:07:45.691Z,20.84
2018-09-14T12:09:38.600Z,20.88
2018-09-14T12:10:38.622Z,20.85
2018-09-14T12:12:31.547Z,20.91
2018-09-14T12:13:31.616Z,21.07
2018-09-14T12:15:24.479Z,20.95
2018-09-14T12:16:24.493Z,21.07
2018-09-14T12:19:49.750Z,21.24
2018-09-14T12:20:49.771Z,21.22
2018-09-14T12:22:42.713Z,20.99
2018-09-14T12:23:42.709Z,21.06
2018-09-14T12:25:35.635Z,21.16
2018-09-14T12:26:35.647Z,21.25
2018-09-14T12:28:28.585Z,21.25
2018-09-14T12:29:28.582Z,21.42
2018-09-14T12:31:21.509Z,21.35
2018-09-14T12:32:21.519Z,21.40
2018-09-14T12:34:14.432Z,21.32
2018-09-14T12:35:14.454Z,21.31
2018-09-14T12:37:07.383Z,21.44
2018-09-14T12:38:07.396Z,21.56
2018-09-14T12:40:00.312Z,21.74
2018-09-14T12:41:00.335Z,21.79
2018-09-14T12:42:53.263Z,21.96
2018-09-14T12:43:53.269Z,21.99
2018-09-14T12:45:46.191Z,22.00
2018-09-14T12:46:46.230Z,22.05
2018-09-14T12:48:39.152Z,22.10
2018-09-14T12:49:39.156Z,21.99
2018-09-14T12:51:32.078Z,21.84
2018-09-14T12:52:32.093Z,21.56
2018-09-14T12:54:25.009Z,21.29
2018-09-14T12:55:25.031Z,21.25
2018-09-14T12:57:17.954Z,21.34
2018-09-14T12:58:17.969Z,21.32
2018-09-14T13:00:10.884Z,21.42
2018-09-14T13:01:10.908Z,21.54
2018-09-14T13:03:03.832Z,21.67
2018-09-14T13:04:03.849Z,21.69
2018-09-14T13:05:56.764Z,21.68
2018-09-14T13:06:56.788Z,21.64
2018-09-14T13:08:49.907Z,21.58
2018-09-14T13:09:49.924Z,21.58
2018-09-14T13:11:43.043Z,21.68
2018-09-14T13:12:43.058Z,21.75
2018-09-14T13:14:36.008Z,21.92
2018-09-14T13:15:36.014Z,21.99
2018-09-14T13:17:28.930Z,21.98
2018-09-14T13:18:28.960Z,22.14
2018-09-14T13:20:21.858Z,22.21
2018-09-14T13:21:21.887Z,22.21
2018-09-14T13:23:14.807Z,22.27
2018-09-14T13:24:14.849Z,22.33
2018-09-14T13:26:07.740Z,22.30
2018-09-14T13:27:07.761Z,22.22
2018-09-14T13:29:00.709Z,22.24
2018-09-14T13:30:00.702Z,22.24
2018-09-14T13:31:53.645Z,22.17
2018-09-14T13:32:53.652Z,22.25
2018-09-14T13:34:46.582Z,22.35
2018-09-14T13:35:46.590Z,22.30
2018-09-14T13:37:39.532Z,22.42
2018-09-14T13:38:39.577Z,22.27
2018-09-14T13:40:32.456Z,22.31
2018-09-14T13:41:32.495Z,22.45
2018-09-14T13:43:25.411Z,22.70
2018-09-14T13:44:25.428Z,22.75
2018-09-14T13:46:18.454Z,22.90
2018-09-14T13:47:18.359Z,23.05
2018-09-14T13:49:11.282Z,23.10
2018-09-14T13:50:11.297Z,23.20
2018-09-14T13:52:04.211Z,23.31
2018-09-14T13:53:04.233Z,23.46
2018-09-14T13:54:57.163Z,23.47
2018-09-14T13:55:57.178Z,23.48
2018-09-14T13:57:50.130Z,23.65
2018-09-14T13:58:50.138Z,23.66
2018-09-14T14:00:43.070Z,23.80
2018-09-14T14:01:43.153Z,23.76
2018-09-14T14:03:36.004Z,23.73
2018-09-14T14:04:36.028Z,23.73
2018-09-14T14:06:28.954Z,23.78
2018-09-14T14:07:28.971Z,23.73
2018-09-14T14:09:21.898Z,23.60
2018-09-14T14:10:21.995Z,23.39
2018-09-14T14:12:14.979Z,23.46
2018-09-14T14:13:15.003Z,23.36
2018-09-14T14:15:07.928Z,23.22
2018-09-14T14:16:07.943Z,23.27
2018-09-14T14:18:00.865Z,23.02
2018-09-14T14:19:00.888Z,22.94
2018-09-14T14:20:53.818Z,23.05
2018-09-14T14:21:53.849Z,23.13
2018-09-14T14:23:46.754Z,23.19
2018-09-14T14:24:46.791Z,23.33
2018-09-14T14:26:39.723Z,23.32
2018-09-14T14:27:39.720Z,23.38
2018-09-14T14:29:32.673Z,23.47
2018-09-14T14:30:32.674Z,23.51
2018-09-14T14:32:25.579Z,23.36
2018-09-14T14:33:25.608Z,23.33
2018-09-14T14:35:18.533Z,23.36
2018-09-14T14:36:18.549Z,23.48
2018-09-14T14:38:11.478Z,23.38
2018-09-14T14:39:11.505Z,23.38
2018-09-14T14:41:04.446Z,23.23
2018-09-14T14:42:04.464Z,23.27
2018-09-14T14:43:57.392Z,23.22
2018-09-14T14:44:57.406Z,23.05
2018-09-14T14:46:50.337Z,23.07
2018-09-14T14:47:50.347Z,23.01
2018-09-14T14:49:43.314Z,23.19
2018-09-14T14:50:43.299Z,23.27
2018-09-14T14:52:36.233Z,23.27
2018-09-14T14:53:36.254Z,23.38
2018-09-14T14:55:29.186Z,23.27
2018-09-14T14:56:29.214Z,23.39
2018-09-14T14:58:22.122Z,23.38
2018-09-14T14:59:22.254Z,23.36
2018-09-14T15:01:15.066Z,23.27
2018-09-14T15:02:15.089Z,23.22
2018-09-14T15:04:08.055Z,23.15
2018-09-14T15:05:08.046Z,23.17
2018-09-14T15:07:00.974Z,23.20
2018-09-14T15:08:00.987Z,23.20
2018-09-14T15:09:53.913Z,23.36
2018-09-14T15:10:53.939Z,23.33
2018-09-14T15:12:47.854Z,23.39
2018-09-14T15:13:47.874Z,23.47
2018-09-14T15:15:40.811Z,23.48
2018-09-14T15:16:40.813Z,23.54
2018-09-14T15:18:33.728Z,23.53
2018-09-14T15:19:33.751Z,23.57
2018-09-14T15:21:26.720Z,23.35
2018-09-14T15:22:26.705Z,23.22
2018-09-14T15:24:19.632Z,23.09
2018-09-14T15:25:19.667Z,23.10
2018-09-14T15:27:12.594Z,22.91
2018-09-14T15:28:12.605Z,22.82
2018-09-14T15:30:05.522Z,22.72
2018-09-14T15:31:05.546Z,22.58
2018-09-14T15:32:59.646Z,22.57
2018-09-14T15:33:59.663Z,22.43
2018-09-14T15:35:52.578Z,22.40
2018-09-14T15:36:52.603Z,22.31
2018-09-14T15:38:45.526Z,22.21
2018-09-14T15:39:45.557Z,22.25
2018-09-14T15:41:38.468Z,22.21
2018-09-14T15:42:38.481Z,22.21
2018-09-14T15:44:31.416Z,22.25
2018-09-14T15:45:31.440Z,22.24
2018-09-14T15:47:24.366Z,22.22
2018-09-14T15:48:24.380Z,22.22
2018-09-14T15:50:17.302Z,22.27
2018-09-14T15:51:17.328Z,22.39
2018-09-14T15:53:10.257Z,22.45
2018-09-14T15:54:10.269Z,22.47
2018-09-14T15:56:03.185Z,22.46
2018-09-14T15:57:03.209Z,22.47
2018-09-14T15:58:56.135Z,22.52
2018-09-14T15:59:56.146Z,22.64
2018-09-14T16:01:49.077Z,22.64
2018-09-14T16:02:49.089Z,22.67
2018-09-14T16:04:42.006Z,22.65
2018-09-14T16:05:42.031Z,22.62
2018-09-14T16:07:34.953Z,22.47
2018-09-14T16:08:34.967Z,22.40
2018-09-14T16:10:27.890Z,22.21
2018-09-14T16:11:27.908Z,22.25
2018-09-14T16:13:20.878Z,22.25
2018-09-14T16:14:20.859Z,22.25
2018-09-14T16:16:13.779Z,22.18
2018-09-14T16:17:13.808Z,22.07
2018-09-14T16:19:06.749Z,22.09
2018-09-14T16:20:06.789Z,22.05
2018-09-14T16:21:59.691Z,21.94
2018-09-14T16:22:59.694Z,21.88
2018-09-14T16:24:52.734Z,21.90
2018-09-14T16:25:52.659Z,21.75
2018-09-14T16:27:45.578Z,21.72
2018-09-14T16:28:45.590Z,21.79
2018-09-14T16:30:38.506Z,21.68
2018-09-14T16:31:38.610Z,21.59
2018-09-14T16:33:31.455Z,21.50
2018-09-14T16:34:31.474Z,21.56
2018-09-14T16:36:24.385Z,21.56
2018-09-14T16:37:24.410Z,21.52
2018-09-14T16:39:17.351Z,21.42
2018-09-14T16:40:17.424Z,21.40
2018-09-14T16:42:10.286Z,21.43
2018-09-14T16:43:10.331Z,21.38
2018-09-14T16:45:03.231Z,21.29
2018-09-14T16:46:03.278Z,21.28
2018-09-14T16:47:56.189Z,21.25
2018-09-14T16:48:56.200Z,21.27
2018-09-14T16:50:49.121Z,21.21
2018-09-14T16:51:49.181Z,21.25
2018-09-14T16:53:42.058Z,21.25
2018-09-14T16:54:42.148Z,21.21
2018-09-14T16:56:34.989Z,21.13
2018-09-14T16:57:35.014Z,21.12
2018-09-14T16:59:28.245Z,21.10
2018-09-14T17:00:28.181Z,21.17
2018-09-14T17:02:21.291Z,21.12
2018-09-14T17:03:21.438Z,21.06
2018-09-14T17:05:14.261Z,20.99
2018-09-14T17:06:14.369Z,20.99
2018-09-14T17:08:07.210Z,20.98
2018-09-14T17:09:07.224Z,20.97
2018-09-14T17:11:00.169Z,20.91
2018-09-14T17:12:00.152Z,20.89
2018-09-14T17:13:53.075Z,20.88
2018-09-14T17:14:53.131Z,20.73
2018-09-14T17:16:46.010Z,20.76
2018-09-14T17:17:46.086Z,20.72
2018-09-14T17:19:38.957Z,20.57
2018-09-14T17:20:38.972Z,20.62
2018-09-14T17:22:33.235Z,20.57
2018-09-14T17:23:31.996Z,20.57
2018-09-14T17:25:25.834Z,20.54
2018-09-14T17:26:25.868Z,20.43
2018-09-14T17:28:18.758Z,20.33
2018-09-14T17:29:18.827Z,20.31
2018-09-14T17:31:11.709Z,20.24
2018-09-14T17:32:11.782Z,20.17
2018-09-14T17:34:05.628Z,20.24
2018-09-14T17:35:05.651Z,20.21
2018-09-14T17:36:58.599Z,20.11
2018-09-14T17:37:58.608Z,20.02
2018-09-14T17:39:51.512Z,19.94
2018-09-14T17:40:51.562Z,19.92
2018-09-14T17:42:44.434Z,19.80
2018-09-14T17:43:44.556Z,19.86
2018-09-14T17:45:37.379Z,19.71
2018-09-14T17:46:37.391Z,19.71
2018-09-14T17:48:30.308Z,19.63
